sensor_id;sensor_type;location;lat;lon;timestamp;P1;durP1;ratioP1;P2;durP2;ratioP2
16029;SDS011;34770;49.272;11.070;2022-08-21T00:01:19;4.22;;;3.90;;
16029;SDS011;34770;49.272;11.070;2022-08-21T00:03:47;5.30;;;3.80;;
16029;SDS011;34770;49.272;11.070;2022-08-21T00:06:12;6.45;;;4.22;;
16029;SDS011;34770;49.272;11.070;2022-08-21T00:08:37;4.25;;;3.85;;
16029;SDS011;34770;49.272;11.070;2022-08-21T00:11:03;4.65;;;4.28;;
16029;SDS011;34770;49.272;11.070;2022-08-21T00:13:29;4.88;;;3.55;;
16029;SDS011;34770;49.272;11.070;2022-08-21T00:15:55;4.45;;;3.85;;
16029;SDS011;34770;49.272;11.070;2022-08-21T00:18:21;8.25;;;3.95;;
16029;SDS011;34770;49.272;11.070;2022-08-21T00:20:46;5.60;;;3.97;;
16029;SDS011;34770;49.272;11.070;2022-08-21T00:23:13;5.07;;;4.50;;
16029;SDS011;34770;49.272;11.070;2022-08-21T00:25:40;6.53;;;5.10;;
16029;SDS011;34770;49.272;11.070;2022-08-21T00:28:08;6.10;;;4.13;;
16029;SDS011;34770;49.272;11.070;2022-08-21T00:30:34;4.35;;;3.92;;
16029;SDS011;34770;49.272;11.070;2022-08-21T00:33:00;6.15;;;4.53;;
16029;SDS011;34770;49.272;11.070;2022-08-21T00:35:27;6.10;;;4.40;;
16029;SDS011;34770;49.272;11.070;2022-08-21T00:37:55;5.80;;;4.28;;
16029;SDS011;34770;49.272;11.070;2022-08-21T00:40:26;5.22;;;4.03;;
16029;SDS011;34770;49.272;11.070;2022-08-21T00:42:58;5.25;;;4.30;;
16029;SDS011;34770;49.272;11.070;2022-08-21T00:45:23;6.97;;;4.28;;
16029;SDS011;34770;49.272;11.070;2022-08-21T00:47:52;4.95;;;4.50;;
16029;SDS011;34770;49.272;11.070;2022-08-21T00:50:20;4.60;;;4.20;;
16029;SDS011;34770;49.272;11.070;2022-08-21T00:52:46;6.72;;;4.40;;
16029;SDS011;34770;49.272;11.070;2022-08-21T00:55:12;4.80;;;4.30;;
16029;SDS011;34770;49.272;11.070;2022-08-21T00:57:44;5.35;;;4.28;;
16029;SDS011;34770;49.272;11.070;2022-08-21T01:00:16;5.15;;;4.25;;
16029;SDS011;34770;49.272;11.070;2022-08-21T01:02:44;4.95;;;4.10;;
16029;SDS011;34770;49.272;11.070;2022-08-21T01:05:10;4.85;;;4.45;;
16029;SDS011;34770;49.272;11.070;2022-08-21T01:07:37;8.93;;;4.63;;
16029;SDS011;34770;49.272;11.070;2022-08-21T01:10:04;4.38;;;3.97;;
16029;SDS011;34770;49.272;11.070;2022-08-21T01:12:30;4.20;;;3.80;;
16029;SDS011;34770;49.272;11.070;2022-08-21T01:14:56;11.60;;;5.00;;
16029;SDS011;34770;49.272;11.070;2022-08-21T01:17:23;5.95;;;4.13;;
16029;SDS011;34770;49.272;11.070;2022-08-21T01:19:51;5.72;;;4.20;;
16029;SDS011;34770;49.272;11.070;2022-08-21T01:22:17;5.57;;;4.35;;
16029;SDS011;34770;49.272;11.070;2022-08-21T01:24:42;5.05;;;4.45;;
16029;SDS011;34770;49.272;11.070;2022-08-21T01:27:07;3.78;;;3.42;;
16029;SDS011;34770;49.272;11.070;2022-08-21T01:29:42;5.68;;;4.38;;
16029;SDS011;34770;49.272;11.070;2022-08-21T01:32:24;5.03;;;4.55;;
16029;SDS011;34770;49.272;11.070;2022-08-21T01:34:51;6.65;;;3.83;;
16029;SDS011;34770;49.272;11.070;2022-08-21T01:37:17;8.85;;;4.45;;
16029;SDS011;34770;49.272;11.070;2022-08-21T01:39:45;5.55;;;4.22;;
16029;SDS011;34770;49.272;11.070;2022-08-21T01:42:11;5.30;;;4.80;;
16029;SDS011;34770;49.272;11.070;2022-08-21T01:44:37;4.68;;;3.67;;
16029;SDS011;34770;49.272;11.070;2022-08-21T01:47:03;5.35;;;4.32;;
16029;SDS011;34770;49.272;11.070;2022-08-21T01:49:32;4.22;;;3.92;;
16029;SDS011;34770;49.272;11.070;2022-08-21T01:51:58;5.05;;;4.50;;
16029;SDS011;34770;49.272;11.070;2022-08-21T01:54:24;4.15;;;3.85;;
16029;SDS011;34770;49.272;11.070;2022-08-21T01:56:50;5.63;;;4.28;;
16029;SDS011;34770;49.272;11.070;2022-08-21T01:59:17;5.22;;;4.70;;
16029;SDS011;34770;49.272;11.070;2022-08-21T02:01:43;5.05;;;4.55;;
16029;SDS011;34770;49.272;11.070;2022-08-21T02:04:09;4.82;;;4.22;;
16029;SDS011;34770;49.272;11.070;2022-08-21T02:06:35;6.57;;;4.82;;
16029;SDS011;34770;49.272;11.070;2022-08-21T02:09:05;5.55;;;4.45;;
16029;SDS011;34770;49.272;11.070;2022-08-21T02:11:32;6.65;;;4.68;;
16029;SDS011;34770;49.272;11.070;2022-08-21T02:14:19;6.22;;;5.72;;
16029;SDS011;34770;49.272;11.070;2022-08-21T02:16:45;27.48;;;6.88;;
16029;SDS011;34770;49.272;11.070;2022-08-21T02:19:12;12.93;;;6.60;;
16029;SDS011;34770;49.272;11.070;2022-08-21T02:21:39;19.98;;;7.40;;
16029;SDS011;34770;49.272;11.070;2022-08-21T02:24:05;8.13;;;6.22;;
16029;SDS011;34770;49.272;11.070;2022-08-21T02:26:31;11.13;;;6.82;;
16029;SDS011;34770;49.272;11.070;2022-08-21T02:28:57;6.35;;;5.75;;
16029;SDS011;34770;49.272;11.070;2022-08-21T02:31:23;7.00;;;6.40;;
16029;SDS011;34770;49.272;11.070;2022-08-21T02:33:49;6.00;;;5.47;;
16029;SDS011;34770;49.272;11.070;2022-08-21T02:36:14;5.88;;;5.30;;
16029;SDS011;34770;49.272;11.070;2022-08-21T02:38:41;5.65;;;5.15;;
16029;SDS011;34770;49.272;11.070;2022-08-21T02:41:10;5.70;;;5.20;;
16029;SDS011;34770;49.272;11.070;2022-08-21T02:43:40;5.53;;;5.03;;
16029;SDS011;34770;49.272;11.070;2022-08-21T02:46:07;6.18;;;5.68;;
16029;SDS011;34770;49.272;11.070;2022-08-21T02:48:33;8.05;;;6.93;;
16029;SDS011;34770;49.272;11.070;2022-08-21T02:51:06;7.55;;;6.57;;
16029;SDS011;34770;49.272;11.070;2022-08-21T02:53:40;8.55;;;6.50;;
16029;SDS011;34770;49.272;11.070;2022-08-21T02:56:07;6.57;;;5.97;;
16029;SDS011;34770;49.272;11.070;2022-08-21T02:58:36;6.43;;;5.82;;
16029;SDS011;34770;49.272;11.070;2022-08-21T03:01:13;7.00;;;5.93;;
16029;SDS011;34770;49.272;11.070;2022-08-21T03:03:40;7.35;;;6.65;;
16029;SDS011;34770;49.272;11.070;2022-08-21T03:06:07;6.70;;;6.00;;
16029;SDS011;34770;49.272;11.070;2022-08-21T03:08:34;5.38;;;4.97;;
16029;SDS011;34770;49.272;11.070;2022-08-21T03:11:00;6.53;;;5.93;;
16029;SDS011;34770;49.272;11.070;2022-08-21T03:13:26;7.55;;;5.32;;
16029;SDS011;34770;49.272;11.070;2022-08-21T03:15:53;6.35;;;5.75;;
16029;SDS011;34770;49.272;11.070;2022-08-21T03:18:19;6.43;;;5.82;;
16029;SDS011;34770;49.272;11.070;2022-08-21T03:20:45;6.82;;;6.10;;
16029;SDS011;34770;49.272;11.070;2022-08-21T03:23:11;7.03;;;6.32;;
16029;SDS011;34770;49.272;11.070;2022-08-21T03:25:37;6.40;;;5.85;;
16029;SDS011;34770;49.272;11.070;2022-08-21T03:28:04;8.10;;;7.30;;
16029;SDS011;34770;49.272;11.070;2022-08-21T03:30:31;6.90;;;6.30;;
16029;SDS011;34770;49.272;11.070;2022-08-21T03:33:00;8.82;;;6.38;;
16029;SDS011;34770;49.272;11.070;2022-08-21T03:35:26;6.05;;;5.55;;
16029;SDS011;34770;49.272;11.070;2022-08-21T03:37:52;5.63;;;5.18;;
16029;SDS011;34770;49.272;11.070;2022-08-21T03:40:19;10.50;;;5.50;;
16029;SDS011;34770;49.272;11.070;2022-08-21T03:42:45;7.90;;;5.00;;
16029;SDS011;34770;49.272;11.070;2022-08-21T03:45:12;5.43;;;4.93;;
16029;SDS011;34770;49.272;11.070;2022-08-21T03:47:52;5.05;;;4.65;;
16029;SDS011;34770;49.272;11.070;2022-08-21T03:50:26;7.53;;;5.47;;
16029;SDS011;34770;49.272;11.070;2022-08-21T03:52:53;6.03;;;5.18;;
16029;SDS011;34770;49.272;11.070;2022-08-21T03:55:19;6.13;;;5.63;;
16029;SDS011;34770;49.272;11.070;2022-08-21T03:57:44;7.13;;;5.53;;
16029;SDS011;34770;49.272;11.070;2022-08-21T04:00:10;5.43;;;4.93;;
16029;SDS011;34770;49.272;11.070;2022-08-21T04:02:37;7.47;;;5.93;;
16029;SDS011;34770;49.272;11.070;2022-08-21T04:05:04;5.00;;;4.60;;
16029;SDS011;34770;49.272;11.070;2022-08-21T04:07:30;5.47;;;4.97;;
16029;SDS011;34770;49.272;11.070;2022-08-21T04:09:55;7.07;;;4.47;;
16029;SDS011;34770;49.272;11.070;2022-08-21T04:12:21;5.40;;;4.90;;
16029;SDS011;34770;49.272;11.070;2022-08-21T04:14:46;5.18;;;4.68;;
16029;SDS011;34770;49.272;11.070;2022-08-21T04:17:12;5.53;;;4.97;;
16029;SDS011;34770;49.272;11.070;2022-08-21T04:19:37;5.75;;;5.25;;
16029;SDS011;34770;49.272;11.070;2022-08-21T04:22:02;7.63;;;5.13;;
16029;SDS011;34770;49.272;11.070;2022-08-21T04:24:28;4.57;;;4.28;;
16029;SDS011;34770;49.272;11.070;2022-08-21T04:26:54;5.45;;;4.65;;
16029;SDS011;34770;49.272;11.070;2022-08-21T04:29:20;6.20;;;4.65;;
16029;SDS011;34770;49.272;11.070;2022-08-21T04:31:45;6.13;;;5.53;;
16029;SDS011;34770;49.272;11.070;2022-08-21T04:34:10;7.72;;;5.80;;
16029;SDS011;34770;49.272;11.070;2022-08-21T04:36:36;5.47;;;4.97;;
16029;SDS011;34770;49.272;11.070;2022-08-21T04:39:01;6.18;;;5.57;;
16029;SDS011;34770;49.272;11.070;2022-08-21T04:41:27;5.38;;;4.88;;
16029;SDS011;34770;49.272;11.070;2022-08-21T04:43:52;4.97;;;4.57;;
16029;SDS011;34770;49.272;11.070;2022-08-21T04:46:20;6.43;;;5.10;;
16029;SDS011;34770;49.272;11.070;2022-08-21T04:48:45;5.90;;;5.32;;
16029;SDS011;34770;49.272;11.070;2022-08-21T04:51:13;6.45;;;5.85;;
16029;SDS011;34770;49.272;11.070;2022-08-21T04:53:40;9.13;;;5.60;;
16029;SDS011;34770;49.272;11.070;2022-08-21T04:56:18;5.20;;;4.63;;
16029;SDS011;34770;49.272;11.070;2022-08-21T04:58:47;6.63;;;5.82;;
16029;SDS011;34770;49.272;11.070;2022-08-21T05:01:15;5.70;;;4.75;;
16029;SDS011;34770;49.272;11.070;2022-08-21T05:03:43;5.90;;;5.35;;
16029;SDS011;34770;49.272;11.070;2022-08-21T05:06:11;6.10;;;5.60;;
16029;SDS011;34770;49.272;11.070;2022-08-21T05:08:40;6.47;;;5.10;;
16029;SDS011;34770;49.272;11.070;2022-08-21T05:11:08;6.40;;;5.10;;
16029;SDS011;34770;49.272;11.070;2022-08-21T05:13:34;9.30;;;5.10;;
16029;SDS011;34770;49.272;11.070;2022-08-21T05:16:00;6.63;;;5.95;;
16029;SDS011;34770;49.272;11.070;2022-08-21T05:18:26;7.70;;;6.78;;
16029;SDS011;34770;49.272;11.070;2022-08-21T05:20:51;10.82;;;7.45;;
16029;SDS011;34770;49.272;11.070;2022-08-21T05:23:17;11.68;;;9.00;;
16029;SDS011;34770;49.272;11.070;2022-08-21T05:25:42;10.82;;;9.68;;
16029;SDS011;34770;49.272;11.070;2022-08-21T05:28:08;12.13;;;9.38;;
16029;SDS011;34770;49.272;11.070;2022-08-21T05:30:35;10.57;;;9.20;;
16029;SDS011;34770;49.272;11.070;2022-08-21T05:33:02;13.35;;;9.48;;
16029;SDS011;34770;49.272;11.070;2022-08-21T05:35:29;11.68;;;8.77;;
16029;SDS011;34770;49.272;11.070;2022-08-21T05:37:55;11.93;;;9.40;;
16029;SDS011;34770;49.272;11.070;2022-08-21T05:40:21;13.68;;;10.38;;
16029;SDS011;34770;49.272;11.070;2022-08-21T05:42:47;10.10;;;9.10;;
16029;SDS011;34770;49.272;11.070;2022-08-21T05:45:12;12.00;;;10.43;;
16029;SDS011;34770;49.272;11.070;2022-08-21T05:47:38;15.93;;;11.20;;
16029;SDS011;34770;49.272;11.070;2022-08-21T05:50:04;21.10;;;12.13;;
16029;SDS011;34770;49.272;11.070;2022-08-21T05:52:30;13.27;;;11.52;;
16029;SDS011;34770;49.272;11.070;2022-08-21T05:54:55;15.70;;;13.23;;
16029;SDS011;34770;49.272;11.070;2022-08-21T05:57:21;18.38;;;13.25;;
16029;SDS011;34770;49.272;11.070;2022-08-21T05:59:47;17.80;;;12.27;;
16029;SDS011;34770;49.272;11.070;2022-08-21T06:02:13;14.95;;;12.00;;
16029;SDS011;34770;49.272;11.070;2022-08-21T06:04:41;18.67;;;12.93;;
16029;SDS011;34770;49.272;11.070;2022-08-21T06:07:06;17.08;;;12.73;;
16029;SDS011;34770;49.272;11.070;2022-08-21T06:09:33;14.30;;;11.52;;
16029;SDS011;34770;49.272;11.070;2022-08-21T06:12:02;13.93;;;11.52;;
16029;SDS011;34770;49.272;11.070;2022-08-21T06:14:29;16.55;;;12.13;;
16029;SDS011;34770;49.272;11.070;2022-08-21T06:16:54;15.52;;;12.60;;
16029;SDS011;34770;49.272;11.070;2022-08-21T06:19:19;19.50;;;13.77;;
16029;SDS011;34770;49.272;11.070;2022-08-21T06:21:45;24.33;;;14.73;;
16029;SDS011;34770;49.272;11.070;2022-08-21T06:24:10;18.15;;;12.98;;
16029;SDS011;34770;49.272;11.070;2022-08-21T06:26:35;20.88;;;13.38;;
16029;SDS011;34770;49.272;11.070;2022-08-21T06:29:02;16.83;;;12.35;;
16029;SDS011;34770;49.272;11.070;2022-08-21T06:31:27;19.58;;;13.43;;
16029;SDS011;34770;49.272;11.070;2022-08-21T06:33:53;16.48;;;12.07;;
16029;SDS011;34770;49.272;11.070;2022-08-21T06:36:19;14.55;;;12.02;;
16029;SDS011;34770;49.272;11.070;2022-08-21T06:38:48;19.05;;;12.00;;
16029;SDS011;34770;49.272;11.070;2022-08-21T06:41:13;20.48;;;12.18;;
16029;SDS011;34770;49.272;11.070;2022-08-21T06:43:38;16.65;;;12.27;;
16029;SDS011;34770;49.272;11.070;2022-08-21T06:46:04;15.73;;;12.00;;
16029;SDS011;34770;49.272;11.070;2022-08-21T06:48:29;13.65;;;11.75;;
16029;SDS011;34770;49.272;11.070;2022-08-21T06:50:58;14.30;;;11.98;;
16029;SDS011;34770;49.272;11.070;2022-08-21T06:53:24;14.45;;;12.73;;
16029;SDS011;34770;49.272;11.070;2022-08-21T06:55:50;14.38;;;12.43;;
16029;SDS011;34770;49.272;11.070;2022-08-21T06:58:15;16.98;;;12.40;;
16029;SDS011;34770;49.272;11.070;2022-08-21T07:00:44;12.60;;;11.30;;
16029;SDS011;34770;49.272;11.070;2022-08-21T07:03:21;14.20;;;12.73;;
16029;SDS011;34770;49.272;11.070;2022-08-21T07:05:52;14.85;;;12.73;;
16029;SDS011;34770;49.272;11.070;2022-08-21T07:08:18;13.05;;;11.73;;
16029;SDS011;34770;49.272;11.070;2022-08-21T07:10:44;14.27;;;12.77;;
16029;SDS011;34770;49.272;11.070;2022-08-21T07:13:10;14.43;;;12.68;;
16029;SDS011;34770;49.272;11.070;2022-08-21T07:15:36;14.60;;;12.57;;
16029;SDS011;34770;49.272;11.070;2022-08-21T07:18:01;14.18;;;12.68;;
16029;SDS011;34770;49.272;11.070;2022-08-21T07:20:28;13.35;;;11.88;;
16029;SDS011;34770;49.272;11.070;2022-08-21T07:22:55;14.52;;;12.48;;
16029;SDS011;34770;49.272;11.070;2022-08-21T07:25:22;15.05;;;12.43;;
16029;SDS011;34770;49.272;11.070;2022-08-21T07:27:47;12.77;;;11.30;;
16029;SDS011;34770;49.272;11.070;2022-08-21T07:30:13;15.82;;;12.75;;
16029;SDS011;34770;49.272;11.070;2022-08-21T07:32:38;15.35;;;11.35;;
16029;SDS011;34770;49.272;11.070;2022-08-21T07:35:03;15.68;;;13.98;;
16029;SDS011;34770;49.272;11.070;2022-08-21T07:37:29;15.65;;;13.90;;
16029;SDS011;34770;49.272;11.070;2022-08-21T07:39:54;14.35;;;12.25;;
16029;SDS011;34770;49.272;11.070;2022-08-21T07:42:20;17.08;;;14.73;;
16029;SDS011;34770;49.272;11.070;2022-08-21T07:44:46;15.38;;;13.70;;
16029;SDS011;34770;49.272;11.070;2022-08-21T07:47:11;14.43;;;12.93;;
16029;SDS011;34770;49.272;11.070;2022-08-21T07:49:36;14.80;;;13.23;;
16029;SDS011;34770;49.272;11.070;2022-08-21T07:52:02;15.40;;;13.00;;
16029;SDS011;34770;49.272;11.070;2022-08-21T07:54:28;15.65;;;13.48;;
16029;SDS011;34770;49.272;11.070;2022-08-21T07:56:53;14.60;;;13.02;;
16029;SDS011;34770;49.272;11.070;2022-08-21T07:59:18;13.85;;;12.45;;
16029;SDS011;34770;49.272;11.070;2022-08-21T08:01:44;13.07;;;11.50;;
16029;SDS011;34770;49.272;11.070;2022-08-21T08:04:09;14.52;;;12.30;;
16029;SDS011;34770;49.272;11.070;2022-08-21T08:06:35;14.35;;;12.38;;
16029;SDS011;34770;49.272;11.070;2022-08-21T08:09:00;14.43;;;12.85;;
16029;SDS011;34770;49.272;11.070;2022-08-21T08:11:28;15.07;;;12.90;;
16029;SDS011;34770;49.272;11.070;2022-08-21T08:13:54;14.93;;;13.32;;
16029;SDS011;34770;49.272;11.070;2022-08-21T08:16:19;14.52;;;13.02;;
16029;SDS011;34770;49.272;11.070;2022-08-21T08:18:45;13.85;;;11.65;;
16029;SDS011;34770;49.272;11.070;2022-08-21T08:21:10;16.55;;;14.85;;
16029;SDS011;34770;49.272;11.070;2022-08-21T08:23:37;14.02;;;12.55;;
16029;SDS011;34770;49.272;11.070;2022-08-21T08:26:03;15.38;;;13.70;;
16029;SDS011;34770;49.272;11.070;2022-08-21T08:28:30;14.38;;;12.85;;
16029;SDS011;34770;49.272;11.070;2022-08-21T08:30:56;13.00;;;11.73;;
16029;SDS011;34770;49.272;11.070;2022-08-21T08:33:23;14.60;;;13.10;;
16029;SDS011;34770;49.272;11.070;2022-08-21T08:35:49;14.45;;;13.00;;
16029;SDS011;34770;49.272;11.070;2022-08-21T08:38:16;14.45;;;12.05;;
16029;SDS011;34770;49.272;11.070;2022-08-21T08:40:46;15.80;;;14.20;;
16029;SDS011;34770;49.272;11.070;2022-08-21T08:43:32;16.27;;;13.73;;
16029;SDS011;34770;49.272;11.070;2022-08-21T08:45:58;16.50;;;13.60;;
16029;SDS011;34770;49.272;11.070;2022-08-21T08:48:36;17.52;;;13.10;;
16029;SDS011;34770;49.272;11.070;2022-08-21T08:51:13;14.35;;;12.18;;
16029;SDS011;34770;49.272;11.070;2022-08-21T08:53:51;12.40;;;11.07;;
16029;SDS011;34770;49.272;11.070;2022-08-21T08:56:23;13.32;;;11.93;;
16029;SDS011;34770;49.272;11.070;2022-08-21T08:58:53;13.00;;;11.00;;
16029;SDS011;34770;49.272;11.070;2022-08-21T09:01:23;11.05;;;9.95;;
16029;SDS011;34770;49.272;11.070;2022-08-21T09:03:48;12.95;;;11.43;;
16029;SDS011;34770;49.272;11.070;2022-08-21T09:06:34;11.65;;;10.48;;
16029;SDS011;34770;49.272;11.070;2022-08-21T09:11:40;10.13;;;9.10;;
16029;SDS011;34770;49.272;11.070;2022-08-21T09:25:12;9.35;;;8.35;;
16029;SDS011;34770;49.272;11.070;2022-08-21T09:27:45;9.60;;;8.70;;
16029;SDS011;34770;49.272;11.070;2022-08-21T09:30:11;9.30;;;8.30;;
16029;SDS011;34770;49.272;11.070;2022-08-21T09:32:38;9.52;;;8.60;;
16029;SDS011;34770;49.272;11.070;2022-08-21T09:37:44;8.38;;;7.57;;
16029;SDS011;34770;49.272;11.070;2022-08-21T09:40:38;7.97;;;7.05;;
16029;SDS011;34770;49.272;11.070;2022-08-21T09:45:34;8.55;;;7.68;;
16029;SDS011;34770;49.272;11.070;2022-08-21T09:48:11;6.88;;;6.18;;
16029;SDS011;34770;49.272;11.070;2022-08-21T09:50:37;6.05;;;5.45;;
16029;SDS011;34770;49.272;11.070;2022-08-21T09:53:03;6.80;;;6.20;;
16029;SDS011;34770;49.272;11.070;2022-08-21T09:55:37;5.72;;;5.15;;
16029;SDS011;34770;49.272;11.070;2022-08-21T09:58:31;6.35;;;5.05;;
16029;SDS011;34770;49.272;11.070;2022-08-21T10:01:00;6.20;;;5.10;;
16029;SDS011;34770;49.272;11.070;2022-08-21T10:03:29;5.28;;;4.78;;
16029;SDS011;34770;49.272;11.070;2022-08-21T10:05:59;5.05;;;4.65;;
16029;SDS011;34770;49.272;11.070;2022-08-21T10:08:30;5.38;;;4.95;;
16029;SDS011;34770;49.272;11.070;2022-08-21T10:11:01;5.55;;;4.95;;
16029;SDS011;34770;49.272;11.070;2022-08-21T10:13:46;6.22;;;5.18;;
16029;SDS011;34770;49.272;11.070;2022-08-21T10:19:22;4.80;;;4.32;;
16029;SDS011;34770;49.272;11.070;2022-08-21T10:22:03;6.05;;;4.85;;
16029;SDS011;34770;49.272;11.070;2022-08-21T10:24:42;5.72;;;4.80;;
16029;SDS011;34770;49.272;11.070;2022-08-21T10:30:06;6.22;;;4.80;;
16029;SDS011;34770;49.272;11.070;2022-08-21T10:32:42;5.28;;;4.50;;
16029;SDS011;34770;49.272;11.070;2022-08-21T10:35:29;4.97;;;4.25;;
16029;SDS011;34770;49.272;11.070;2022-08-21T10:45:42;5.55;;;4.78;;
16029;SDS011;34770;49.272;11.070;2022-08-21T10:56:29;4.05;;;3.72;;
16029;SDS011;34770;49.272;11.070;2022-08-21T10:59:08;5.55;;;3.80;;
16029;SDS011;34770;49.272;11.070;2022-08-21T11:01:45;5.07;;;4.53;;
16029;SDS011;34770;49.272;11.070;2022-08-21T11:07:27;4.05;;;3.70;;
16029;SDS011;34770;49.272;11.070;2022-08-21T11:09:52;3.88;;;3.58;;
16029;SDS011;34770;49.272;11.070;2022-08-21T11:17:39;3.60;;;3.30;;
16029;SDS011;34770;49.272;11.070;2022-08-21T11:20:13;7.30;;;3.17;;
16029;SDS011;34770;49.272;11.070;2022-08-21T11:22:54;3.70;;;3.40;;
16029;SDS011;34770;49.272;11.070;2022-08-21T11:25:35;3.20;;;2.90;;
16029;SDS011;34770;49.272;11.070;2022-08-21T11:31:04;3.63;;;3.33;;
16029;SDS011;34770;49.272;11.070;2022-08-21T11:33:36;5.43;;;3.38;;
16029;SDS011;34770;49.272;11.070;2022-08-21T11:36:25;5.07;;;3.45;;
16029;SDS011;34770;49.272;11.070;2022-08-21T11:39:06;3.22;;;2.92;;
16029;SDS011;34770;49.272;11.070;2022-08-21T11:41:49;3.63;;;3.33;;
16029;SDS011;34770;49.272;11.070;2022-08-21T11:47:31;4.38;;;3.45;;
16029;SDS011;34770;49.272;11.070;2022-08-21T11:52:43;6.22;;;3.97;;
16029;SDS011;34770;49.272;11.070;2022-08-21T11:55:18;4.85;;;3.45;;
16029;SDS011;34770;49.272;11.070;2022-08-21T12:00:52;3.53;;;3.22;;
16029;SDS011;34770;49.272;11.070;2022-08-21T12:03:25;3.70;;;3.40;;
16029;SDS011;34770;49.272;11.070;2022-08-21T12:06:00;3.45;;;3.15;;
16029;SDS011;34770;49.272;11.070;2022-08-21T12:08:34;3.72;;;3.35;;
16029;SDS011;34770;49.272;11.070;2022-08-21T12:11:07;3.17;;;2.88;;
16029;SDS011;34770;49.272;11.070;2022-08-21T12:14:11;3.28;;;2.97;;
16029;SDS011;34770;49.272;11.070;2022-08-21T12:16:41;3.97;;;3.17;;
16029;SDS011;34770;49.272;11.070;2022-08-21T12:19:10;2.88;;;2.67;;
16029;SDS011;34770;49.272;11.070;2022-08-21T12:21:52;4.28;;;2.90;;
16029;SDS011;34770;49.272;11.070;2022-08-21T12:24:29;3.53;;;3.17;;
16029;SDS011;34770;49.272;11.070;2022-08-21T12:26:58;3.28;;;2.97;;
16029;SDS011;34770;49.272;11.070;2022-08-21T12:29:30;3.20;;;2.90;;
16029;SDS011;34770;49.272;11.070;2022-08-21T12:34:36;3.85;;;3.13;;
16029;SDS011;34770;49.272;11.070;2022-08-21T12:37:11;3.28;;;2.97;;
16029;SDS011;34770;49.272;11.070;2022-08-21T12:39:43;3.25;;;2.97;;
16029;SDS011;34770;49.272;11.070;2022-08-21T12:42:16;3.38;;;3.08;;
16029;SDS011;34770;49.272;11.070;2022-08-21T12:44:55;2.88;;;2.63;;
16029;SDS011;34770;49.272;11.070;2022-08-21T12:47:27;3.20;;;2.90;;
16029;SDS011;34770;49.272;11.070;2022-08-21T12:50:01;3.30;;;3.00;;
16029;SDS011;34770;49.272;11.070;2022-08-21T12:52:35;3.42;;;2.92;;
16029;SDS011;34770;49.272;11.070;2022-08-21T12:55:07;3.13;;;2.55;;
16029;SDS011;34770;49.272;11.070;2022-08-21T12:57:39;3.13;;;2.83;;
16029;SDS011;34770;49.272;11.070;2022-08-21T13:00:07;4.03;;;2.78;;
16029;SDS011;34770;49.272;11.070;2022-08-21T13:02:38;2.83;;;2.63;;
16029;SDS011;34770;49.272;11.070;2022-08-21T13:05:11;4.18;;;2.90;;
16029;SDS011;34770;49.272;11.070;2022-08-21T13:07:42;3.88;;;3.38;;
16029;SDS011;34770;49.272;11.070;2022-08-21T13:10:18;3.40;;;2.85;;
16029;SDS011;34770;49.272;11.070;2022-08-21T13:12:46;2.88;;;2.67;;
16029;SDS011;34770;49.272;11.070;2022-08-21T13:15:13;3.30;;;3.00;;
16029;SDS011;34770;49.272;11.070;2022-08-21T13:17:41;4.18;;;2.75;;
16029;SDS011;34770;49.272;11.070;2022-08-21T13:20:33;3.55;;;3.25;;
16029;SDS011;34770;49.272;11.070;2022-08-21T13:23:03;3.10;;;2.80;;
16029;SDS011;34770;49.272;11.070;2022-08-21T13:25:40;3.45;;;3.15;;
16029;SDS011;34770;49.272;11.070;2022-08-21T13:30:34;4.75;;;3.17;;
16029;SDS011;34770;49.272;11.070;2022-08-21T13:33:05;3.53;;;3.22;;
16029;SDS011;34770;49.272;11.070;2022-08-21T13:35:46;3.75;;;3.20;;
16029;SDS011;34770;49.272;11.070;2022-08-21T13:38:14;3.17;;;2.88;;
16029;SDS011;34770;49.272;11.070;2022-08-21T13:41:03;2.90;;;2.63;;
16029;SDS011;34770;49.272;11.070;2022-08-21T13:43:33;3.60;;;3.30;;
16029;SDS011;34770;49.272;11.070;2022-08-21T13:46:01;2.53;;;2.33;;
16029;SDS011;34770;49.272;11.070;2022-08-21T13:48:31;2.70;;;2.50;;
16029;SDS011;34770;49.272;11.070;2022-08-21T13:53:52;3.10;;;2.80;;
16029;SDS011;34770;49.272;11.070;2022-08-21T13:56:23;3.17;;;2.90;;
16029;SDS011;34770;49.272;11.070;2022-08-21T13:58:52;3.08;;;2.88;;
16029;SDS011;34770;49.272;11.070;2022-08-21T14:01:20;3.30;;;3.00;;
16029;SDS011;34770;49.272;11.070;2022-08-21T14:03:55;3.45;;;3.15;;
16029;SDS011;34770;49.272;11.070;2022-08-21T14:06:27;3.70;;;3.40;;
16029;SDS011;34770;49.272;11.070;2022-08-21T14:08:58;3.53;;;2.80;;
16029;SDS011;34770;49.272;11.070;2022-08-21T14:11:27;3.20;;;2.90;;
16029;SDS011;34770;49.272;11.070;2022-08-21T14:13:59;4.45;;;3.25;;
16029;SDS011;34770;49.272;11.070;2022-08-21T14:16:39;3.08;;;2.88;;
16029;SDS011;34770;49.272;11.070;2022-08-21T14:19:10;3.35;;;3.10;;
16029;SDS011;34770;49.272;11.070;2022-08-21T14:21:44;3.10;;;2.80;;
16029;SDS011;34770;49.272;11.070;2022-08-21T14:26:54;3.60;;;3.30;;
16029;SDS011;34770;49.272;11.070;2022-08-21T14:29:24;3.50;;;2.78;;
16029;SDS011;34770;49.272;11.070;2022-08-21T14:31:53;3.80;;;2.65;;
16029;SDS011;34770;49.272;11.070;2022-08-21T14:34:25;3.13;;;2.83;;
16029;SDS011;34770;49.272;11.070;2022-08-21T14:36:53;3.28;;;2.83;;
16029;SDS011;34770;49.272;11.070;2022-08-21T14:39:19;3.72;;;2.60;;
16029;SDS011;34770;49.272;11.070;2022-08-21T14:41:45;3.92;;;3.00;;
16029;SDS011;34770;49.272;11.070;2022-08-21T14:44:13;2.92;;;2.67;;
16029;SDS011;34770;49.272;11.070;2022-08-21T14:46:39;2.80;;;2.55;;
16029;SDS011;34770;49.272;11.070;2022-08-21T14:49:05;3.03;;;2.72;;
16029;SDS011;34770;49.272;11.070;2022-08-21T14:51:30;2.90;;;2.67;;
16029;SDS011;34770;49.272;11.070;2022-08-21T14:53:56;3.08;;;2.85;;
16029;SDS011;34770;49.272;11.070;2022-08-21T14:56:21;2.85;;;2.65;;
16029;SDS011;34770;49.272;11.070;2022-08-21T14:58:48;3.00;;;2.80;;
16029;SDS011;34770;49.272;11.070;2022-08-21T15:01:17;3.08;;;2.78;;
16029;SDS011;34770;49.272;11.070;2022-08-21T15:03:45;3.05;;;2.83;;
16029;SDS011;34770;49.272;11.070;2022-08-21T15:06:12;2.97;;;2.67;;
16029;SDS011;34770;49.272;11.070;2022-08-21T15:08:38;3.13;;;2.83;;
16029;SDS011;34770;49.272;11.070;2022-08-21T15:11:03;2.80;;;2.60;;
16029;SDS011;34770;49.272;11.070;2022-08-21T15:13:30;3.58;;;2.67;;
16029;SDS011;34770;49.272;11.070;2022-08-21T15:15:56;3.22;;;2.30;;
16029;SDS011;34770;49.272;11.070;2022-08-21T15:18:25;3.22;;;2.92;;
16029;SDS011;34770;49.272;11.070;2022-08-21T15:20:52;3.03;;;2.80;;
16029;SDS011;34770;49.272;11.070;2022-08-21T15:23:17;2.97;;;2.78;;
16029;SDS011;34770;49.272;11.070;2022-08-21T15:25:43;2.90;;;2.70;;
16029;SDS011;34770;49.272;11.070;2022-08-21T15:28:10;3.13;;;2.83;;
16029;SDS011;34770;49.272;11.070;2022-08-21T15:30:37;2.58;;;2.38;;
16029;SDS011;34770;49.272;11.070;2022-08-21T15:33:04;3.92;;;3.15;;
16029;SDS011;34770;49.272;11.070;2022-08-21T15:35:31;2.95;;;2.65;;
16029;SDS011;34770;49.272;11.070;2022-08-21T15:37:57;2.90;;;2.63;;
16029;SDS011;34770;49.272;11.070;2022-08-21T15:40:22;4.43;;;2.33;;
16029;SDS011;34770;49.272;11.070;2022-08-21T15:42:49;2.60;;;2.40;;
16029;SDS011;34770;49.272;11.070;2022-08-21T15:45:18;2.80;;;2.60;;
16029;SDS011;34770;49.272;11.070;2022-08-21T15:47:44;2.97;;;2.67;;
16029;SDS011;34770;49.272;11.070;2022-08-21T15:50:11;3.97;;;2.38;;